NCAR-RAP Real-Time Weather Data

Output produced by METARs form (10 April 2020  07:24 UTC)
found at http://weather.rap.ucar.edu/surface/
 
KLWS 100656Z AUTO 19006KT 10SM CLR 11/00 A2996 RMK AO2 SLP145 T01110000
KLWS 100556Z AUTO 16004KT 10SM CLR 12/00 A2995 RMK AO2 SLP142 T01170000 10222 20117 51006
KLWS 100456Z 19008KT 10SM CLR 13/M01 A2994 RMK AO2 SLP140 T01331006
KLWS 100356Z 19008KT 10SM CLR 15/M01 A2994 RMK AO2 SLP141 T01501006
KLWS 100256Z 18003KT 10SM CLR 19/M02 A2993 RMK AO2 SLP136 T01891017 56012
KLWS 100156Z 20003KT 10SM CLR 21/M02 A2993 RMK AO2 SLP137 T02061022
KLWS 100056Z 00000KT 10SM CLR 22/M01 A2995 RMK AO2 SLP143 T02171006
KLWS 092356Z VRB04KT 10SM CLR 22/M01 A2997 RMK AO2 SLP147 T02221011 10222 20128 56024
KLWS 092256Z 21004KT 10SM CLR 21/M03 A2999 RMK AO2 SLP154 T02111028
KLWS 092156Z 00000KT 10SM CLR 21/M03 A3001 RMK AO2 SLP161 T02061028
KLWS 092056Z 00000KT 10SM CLR 20/M02 A3004 RMK AO2 SLP174 T02001017 58029
KLWS 091956Z 00000KT 10SM CLR 17/01 A3007 RMK AO2 SLP184 T01720011
KLWS 091856Z 00000KT 10SM CLR 15/02 A3010 RMK AO2 SLP196 T01500022
KLWS 091756Z VRB04KT 10SM CLR 14/02 A3013 RMK AO2 SLP205 T01390022 10139 20039 58014
KLWS 091656Z 00000KT 10SM CLR 11/01 A3015 RMK AO2 SLP213 T01060011
KLWS 091556Z 06005KT 10SM CLR 09/01 A3016 RMK AO2 SLP216 T00890011
KLWS 091456Z 06006KT 10SM CLR 07/00 A3017 RMK AO2 SLP220 T00720000 53001
KLWS 091356Z 08003KT 10SM CLR 06/M01 A3017 RMK AO2 SLP220 T00561006
KLWS 091256Z AUTO 08004KT 10SM CLR 05/M01 A3017 RMK AO2 SLP218 T00501011
KLWS 091156Z AUTO 10004KT 10SM CLR 06/M01 A3017 RMK AO2 SLP218 T00611011 10100 20050 55000
KLWS 091056Z AUTO 00000KT 10SM CLR 06/M02 A3017 RMK AO2 SLP218 T00611022